createdAt,value
2023-05-13T00:01:55.821Z,33.76
2023-05-13T00:04:22.252Z,33.80
2023-05-13T00:06:48.675Z,33.75
2023-05-13T00:09:14.995Z,34.19
2023-05-13T00:11:41.385Z,34.07
2023-05-13T00:14:29.870Z,33.84
2023-05-13T00:16:58.638Z,33.82
2023-05-13T00:19:25.459Z,34.01
2023-05-13T00:21:51.872Z,34.03
2023-05-13T00:24:18.387Z,34.01
2023-05-13T00:26:44.755Z,34.20
2023-05-13T00:29:13.168Z,34.14
2023-05-13T00:31:39.654Z,34.03
2023-05-13T00:34:06.834Z,34.12
2023-05-13T00:36:33.218Z,34.02
2023-05-13T00:38:59.550Z,34.13
2023-05-13T00:41:26.094Z,34.04
2023-05-13T00:43:56.870Z,34.20
2023-05-13T00:46:23.901Z,34.02
2023-05-13T00:48:50.968Z,34.25
2023-05-13T00:51:18.165Z,33.94
2023-05-13T00:53:45.460Z,34.08
2023-05-13T00:56:11.883Z,34.17
2023-05-13T00:58:38.232Z,34.28
2023-05-13T01:01:05.032Z,34.03
2023-05-13T01:03:50.572Z,34.28
2023-05-13T01:06:21.533Z,34.25
2023-05-13T01:09:11.667Z,34.15
2023-05-13T01:11:41.233Z,34.25
2023-05-13T01:14:19.863Z,34.25
2023-05-13T01:16:49.490Z,34.32
2023-05-13T01:19:36.256Z,34.40
2023-05-13T01:22:02.707Z,34.23
2023-05-13T01:24:29.103Z,34.44
2023-05-13T01:26:55.589Z,34.16
2023-05-13T01:29:22.222Z,34.19
2023-05-13T01:31:50.023Z,34.32
2023-05-13T01:34:18.161Z,34.19
2023-05-13T01:36:44.677Z,34.25
2023-05-13T01:39:11.662Z,34.33
2023-05-13T01:41:38.153Z,34.29
2023-05-13T01:44:04.613Z,34.18
2023-05-13T01:46:31.246Z,34.50
2023-05-13T01:48:57.677Z,34.31
2023-05-13T01:51:24.025Z,34.16
2023-05-13T01:53:50.393Z,34.40
2023-05-13T01:56:16.774Z,34.47
2023-05-13T01:58:43.223Z,34.39
2023-05-13T02:01:09.742Z,34.28
2023-05-13T02:03:37.775Z,34.51
2023-05-13T02:06:04.466Z,34.39
2023-05-13T02:08:31.071Z,34.51
2023-05-13T02:10:57.944Z,34.27
2023-05-13T02:13:24.957Z,34.42
2023-05-13T02:15:51.374Z,34.33
2023-05-13T02:18:17.709Z,34.69
2023-05-13T02:20:44.244Z,34.50
2023-05-13T02:23:10.655Z,34.41
2023-05-13T02:25:37.034Z,34.34
2023-05-13T02:28:03.465Z,34.55
2023-05-13T02:30:29.844Z,34.49
2023-05-13T02:32:57.445Z,34.67
2023-05-13T02:35:25.556Z,34.83
2023-05-13T02:37:52.237Z,34.50
2023-05-13T02:40:18.873Z,34.59
2023-05-13T02:42:45.411Z,34.66
2023-05-13T02:45:11.833Z,34.85
2023-05-13T02:47:39.416Z,34.80
2023-05-13T02:50:08.082Z,34.67
2023-05-13T02:52:38.940Z,34.94
2023-05-13T02:55:09.330Z,34.82
2023-05-13T02:57:36.542Z,34.85
2023-05-13T03:00:04.708Z,34.51
2023-05-13T03:02:31.622Z,34.79
2023-05-13T03:04:58.225Z,34.63
2023-05-13T03:07:25.026Z,34.67
2023-05-13T03:09:51.447Z,34.64
2023-05-13T03:12:17.883Z,34.52
2023-05-13T03:14:44.539Z,34.61
2023-05-13T03:17:11.732Z,34.60
2023-05-13T03:19:38.726Z,34.79
2023-05-13T03:22:05.624Z,34.69
2023-05-13T03:24:32.412Z,34.63
2023-05-13T03:26:58.832Z,34.59
2023-05-13T03:29:25.309Z,34.66
2023-05-13T03:31:52.563Z,34.83
2023-05-13T03:34:19.259Z,34.49
2023-05-13T03:36:45.634Z,34.67
2023-05-13T03:39:12.216Z,34.60
2023-05-13T03:41:38.587Z,34.92
2023-05-13T03:44:04.936Z,34.92
2023-05-13T03:46:32.060Z,34.68
2023-05-13T03:48:58.876Z,34.86
2023-05-13T03:51:25.808Z,35.03
2023-05-13T03:53:52.286Z,35.02
2023-05-13T03:56:18.691Z,35.00
2023-05-13T03:58:45.406Z,34.81
2023-05-13T04:01:11.820Z,34.89
2023-05-13T04:03:38.132Z,35.03
2023-05-13T04:06:04.609Z,34.86
2023-05-13T04:08:30.975Z,35.16
2023-05-13T04:10:57.514Z,34.99
2023-05-13T04:13:23.850Z,34.93
2023-05-13T04:15:50.295Z,35.11
2023-05-13T04:18:16.619Z,34.92
2023-05-13T04:20:43.009Z,35.13
2023-05-13T04:23:10.345Z,35.09
2023-05-13T04:25:39.845Z,34.92
2023-05-13T04:28:07.125Z,35.08
2023-05-13T04:30:33.915Z,34.94
2023-05-13T04:33:00.479Z,35.33
2023-05-13T04:35:26.940Z,35.45
2023-05-13T04:37:53.582Z,35.06
2023-05-13T04:40:20.378Z,35.09
2023-05-13T04:42:47.031Z,35.27
2023-05-13T04:45:13.474Z,35.12
2023-05-13T04:47:39.972Z,35.31
2023-05-13T04:50:06.844Z,35.38
2023-05-13T04:52:33.790Z,35.36
2023-05-13T04:55:00.277Z,35.36
2023-05-13T04:57:26.696Z,35.31
2023-05-13T04:59:53.023Z,35.19
2023-05-13T05:02:19.758Z,35.31
2023-05-13T05:04:46.252Z,35.15
2023-05-13T05:07:12.611Z,35.29
2023-05-13T05:09:39.033Z,34.98
2023-05-13T05:12:05.578Z,35.02
2023-05-13T05:14:32.065Z,35.00
2023-05-13T05:16:58.621Z,34.86
2023-05-13T05:19:25.140Z,34.90
2023-05-13T05:21:51.956Z,35.08
2023-05-13T05:24:18.540Z,34.84
2023-05-13T05:26:44.969Z,34.90
2023-05-13T05:29:11.564Z,34.95
2023-05-13T05:31:38.869Z,34.91
2023-05-13T05:34:05.458Z,34.95
2023-05-13T05:36:31.874Z,34.97
2023-05-13T05:38:58.261Z,35.17
2023-05-13T05:41:24.854Z,34.86
2023-05-13T05:43:51.301Z,34.90
2023-05-13T05:46:17.924Z,35.01
2023-05-13T05:48:44.617Z,35.07
2023-05-13T05:51:11.044Z,35.26
2023-05-13T05:53:41.298Z,35.32
2023-05-13T05:56:08.130Z,35.48
2023-05-13T05:58:35.008Z,35.48
2023-05-13T06:01:01.580Z,35.60
2023-05-13T06:03:28.415Z,35.37
2023-05-13T06:05:54.903Z,35.59
2023-05-13T06:08:21.367Z,35.64
2023-05-13T06:10:47.690Z,35.41
2023-05-13T06:13:14.071Z,35.67
2023-05-13T06:15:40.751Z,35.33
2023-05-13T06:18:07.301Z,35.48
2023-05-13T06:20:33.855Z,35.34
2023-05-13T06:23:00.581Z,35.53
2023-05-13T06:25:26.942Z,35.53
2023-05-13T06:27:53.386Z,35.43
2023-05-13T06:30:20.132Z,35.50
2023-05-13T06:33:00.071Z,35.75
2023-05-13T06:35:28.016Z,35.82
2023-05-13T06:37:54.400Z,35.89
2023-05-13T06:40:21.028Z,35.44
2023-05-13T06:42:47.595Z,35.67
2023-05-13T06:45:13.991Z,35.88
2023-05-13T06:47:40.333Z,35.59
2023-05-13T06:50:06.943Z,35.77
2023-05-13T06:52:33.310Z,35.52
2023-05-13T06:54:59.990Z,35.63
2023-05-13T06:57:38.826Z,35.78
2023-05-13T07:00:08.994Z,35.56
2023-05-13T07:02:35.439Z,35.58
2023-05-13T07:05:02.166Z,35.73
2023-05-13T07:07:28.556Z,35.57
2023-05-13T07:09:54.970Z,35.68
2023-05-13T07:12:21.404Z,35.53
2023-05-13T07:14:47.832Z,35.94
2023-05-13T07:17:14.330Z,35.84
2023-05-13T07:19:40.786Z,35.86
2023-05-13T07:22:07.219Z,35.76
2023-05-13T07:24:33.589Z,35.65
2023-05-13T07:27:01.280Z,35.77
2023-05-13T07:29:28.013Z,35.70
2023-05-13T07:31:54.350Z,35.82
2023-05-13T07:34:21.201Z,35.81
2023-05-13T07:36:47.780Z,35.59
2023-05-13T07:39:14.150Z,35.94
2023-05-13T07:41:40.484Z,35.83
2023-05-13T07:44:11.718Z,35.84
2023-05-13T07:46:38.176Z,35.90
2023-05-13T07:49:06.957Z,35.74
2023-05-13T07:51:33.401Z,35.66
2023-05-13T07:53:59.829Z,35.99
2023-05-13T07:56:26.243Z,35.71
2023-05-13T07:58:52.896Z,35.90
2023-05-13T08:01:19.396Z,36.05
2023-05-13T08:03:45.937Z,35.82
2023-05-13T08:06:12.541Z,35.78
2023-05-13T08:08:38.893Z,35.62
2023-05-13T08:11:05.414Z,35.88
2023-05-13T08:13:31.913Z,35.74
2023-05-13T08:16:01.153Z,35.51
2023-05-13T08:18:27.616Z,32.87
2023-05-13T08:20:54.031Z,29.79
2023-05-13T08:23:20.872Z,29.34
2023-05-13T08:25:47.711Z,27.85
2023-05-13T08:28:14.086Z,28.16
2023-05-13T08:30:44.195Z,27.34
2023-05-13T08:33:11.677Z,26.03
2023-05-13T08:35:38.079Z,26.15
2023-05-13T08:38:05.619Z,26.68
2023-05-13T08:40:32.708Z,26.53
2023-05-13T08:43:03.784Z,27.06
2023-05-13T08:45:31.476Z,26.96
2023-05-13T08:47:59.835Z,26.51
2023-05-13T08:50:27.499Z,26.34
2023-05-13T08:52:54.193Z,26.60
2023-05-13T08:55:21.336Z,26.56
2023-05-13T08:57:48.072Z,27.09
2023-05-13T09:00:14.670Z,27.32
2023-05-13T09:02:42.024Z,27.17
2023-05-13T09:05:09.434Z,27.56
2023-05-13T09:07:36.789Z,27.37
2023-05-13T09:10:04.293Z,27.28
2023-05-13T09:12:42.844Z,27.24
2023-05-13T09:15:10.428Z,27.13
2023-05-13T09:17:42.627Z,26.89
2023-05-13T09:20:09.770Z,26.83
2023-05-13T09:22:36.116Z,26.60
2023-05-13T09:25:02.568Z,26.65
2023-05-13T09:27:36.792Z,26.62
2023-05-13T09:30:03.568Z,25.89
2023-05-13T09:32:30.023Z,25.91
2023-05-13T09:34:56.491Z,26.11
2023-05-13T09:37:23.875Z,25.91
2023-05-13T09:39:52.295Z,25.87
2023-05-13T09:42:19.589Z,25.91
2023-05-13T09:44:46.790Z,25.61
2023-05-13T09:47:17.220Z,25.48
2023-05-13T09:49:44.938Z,24.84
2023-05-13T09:52:12.106Z,25.07
2023-05-13T09:54:38.784Z,25.62
2023-05-13T09:57:05.806Z,25.19
2023-05-13T09:59:33.205Z,25.35
2023-05-13T10:02:01.016Z,25.68
2023-05-13T10:04:27.789Z,25.79
2023-05-13T10:06:55.261Z,25.62
2023-05-13T10:09:22.446Z,25.65
2023-05-13T10:11:49.030Z,25.76
2023-05-13T10:14:17.040Z,25.87
2023-05-13T10:16:44.071Z,25.78
2023-05-13T10:19:10.654Z,25.61
2023-05-13T10:21:37.480Z,25.51
2023-05-13T10:24:03.966Z,25.43
2023-05-13T10:26:31.199Z,25.58
2023-05-13T10:28:57.597Z,25.60
2023-05-13T10:31:24.576Z,25.36
2023-05-13T10:33:52.399Z,25.60
2023-05-13T10:36:19.984Z,25.58
2023-05-13T10:38:58.494Z,25.58
2023-05-13T10:41:40.268Z,25.33
2023-05-13T10:44:09.313Z,25.62
2023-05-13T10:46:39.454Z,25.62
2023-05-13T10:49:06.996Z,25.52
2023-05-13T10:51:33.509Z,25.48
2023-05-13T10:53:59.966Z,25.59
2023-05-13T10:56:27.904Z,25.56
2023-05-13T10:59:01.533Z,25.55
2023-05-13T11:01:30.098Z,25.61
2023-05-13T11:04:00.810Z,25.38
2023-05-13T11:06:30.452Z,25.33
2023-05-13T11:08:57.057Z,25.24
2023-05-13T11:11:23.608Z,25.33
2023-05-13T11:13:50.809Z,25.22
2023-05-13T11:16:18.165Z,25.16
2023-05-13T11:18:44.936Z,25.21
2023-05-13T11:21:11.362Z,25.02
2023-05-13T11:23:56.082Z,25.21
2023-05-13T11:26:23.030Z,25.16
2023-05-13T11:28:53.348Z,25.04
2023-05-13T11:31:21.209Z,25.19
2023-05-13T11:34:07.568Z,24.91
2023-05-13T11:36:34.806Z,24.91
2023-05-13T11:39:07.476Z,24.91
2023-05-13T11:41:34.315Z,24.88
2023-05-13T11:44:03.272Z,24.81
2023-05-13T11:46:30.163Z,25.14
2023-05-13T11:48:56.830Z,24.81
2023-05-13T11:51:23.675Z,24.98
2023-05-13T11:53:50.165Z,24.96
2023-05-13T11:56:16.514Z,25.04
2023-05-13T11:58:43.312Z,24.90
2023-05-13T12:01:14.174Z,25.03
2023-05-13T12:03:40.799Z,24.84
2023-05-13T12:06:07.169Z,25.13
2023-05-13T12:08:34.085Z,24.89
2023-05-13T12:11:00.486Z,25.06
2023-05-13T12:13:27.100Z,25.19
2023-05-13T12:15:54.203Z,25.07
2023-05-13T12:18:20.708Z,24.95
2023-05-13T12:20:47.153Z,24.96
2023-05-13T12:23:14.130Z,25.07
2023-05-13T12:25:51.430Z,25.11
2023-05-13T12:28:18.108Z,25.50
2023-05-13T12:30:51.595Z,25.23
2023-05-13T12:33:22.521Z,25.62
2023-05-13T12:35:50.233Z,25.65
2023-05-13T12:38:18.088Z,25.67
2023-05-13T12:40:45.267Z,25.77
2023-05-13T12:43:12.294Z,25.98
2023-05-13T12:45:43.251Z,25.54
2023-05-13T12:48:11.325Z,25.55
2023-05-13T12:50:37.765Z,25.97
2023-05-13T12:53:04.129Z,25.94
2023-05-13T12:55:30.469Z,25.98
2023-05-13T12:57:59.436Z,26.09
2023-05-13T13:00:26.543Z,26.11
2023-05-13T13:02:53.888Z,26.03
2023-05-13T13:05:21.467Z,26.20
2023-05-13T13:07:48.086Z,26.32
2023-05-13T13:10:15.092Z,26.35
2023-05-13T13:12:41.618Z,26.42
2023-05-13T13:15:08.577Z,26.76
2023-05-13T13:17:35.016Z,26.44
2023-05-13T13:20:01.889Z,26.62
2023-05-13T13:22:28.391Z,26.48
2023-05-13T13:24:54.768Z,26.48
2023-05-13T13:27:21.236Z,26.81
2023-05-13T13:29:47.740Z,26.60
2023-05-13T13:32:14.161Z,26.64
2023-05-13T13:34:40.844Z,26.80
2023-05-13T13:37:07.241Z,27.03
2023-05-13T13:39:34.884Z,26.83
2023-05-13T13:42:04.509Z,27.01
2023-05-13T13:44:31.366Z,27.27
2023-05-13T13:46:58.280Z,27.01
2023-05-13T13:49:25.082Z,26.98
2023-05-13T13:51:52.343Z,26.92
2023-05-13T13:54:18.861Z,27.27
2023-05-13T13:56:45.751Z,27.28
2023-05-13T13:59:12.148Z,27.37
2023-05-13T14:01:40.287Z,27.39
2023-05-13T14:04:12.908Z,27.32
2023-05-13T14:06:39.537Z,27.48
2023-05-13T14:09:05.935Z,27.79
2023-05-13T14:11:32.698Z,27.37
2023-05-13T14:13:59.054Z,27.82
2023-05-13T14:16:25.455Z,27.59
2023-05-13T14:18:51.939Z,27.90
2023-05-13T14:21:18.641Z,27.59
2023-05-13T14:23:45.013Z,27.74
2023-05-13T14:26:13.266Z,27.73
2023-05-13T14:28:39.634Z,27.96
2023-05-13T14:31:06.026Z,28.04
2023-05-13T14:33:32.511Z,28.08
2023-05-13T14:36:36.050Z,28.10
2023-05-13T14:39:02.402Z,27.96
2023-05-13T14:41:29.582Z,28.16
2023-05-13T14:43:55.908Z,28.09
2023-05-13T14:46:22.430Z,28.20
2023-05-13T14:48:48.951Z,28.20
2023-05-13T14:51:15.569Z,28.40
2023-05-13T14:53:42.682Z,28.50
2023-05-13T14:56:09.155Z,28.56
2023-05-13T14:58:36.080Z,28.45
2023-05-13T15:01:02.619Z,28.70
2023-05-13T15:03:29.052Z,28.36
2023-05-13T15:05:56.088Z,28.50
2023-05-13T15:08:22.674Z,28.46
2023-05-13T15:10:49.444Z,28.81
2023-05-13T15:13:15.887Z,28.64
2023-05-13T15:15:42.370Z,28.66
2023-05-13T15:18:08.874Z,28.70
2023-05-13T15:20:35.276Z,28.81
2023-05-13T15:23:01.607Z,28.82
2023-05-13T15:25:28.073Z,29.13
2023-05-13T15:27:54.420Z,29.06
2023-05-13T15:30:21.154Z,29.27
2023-05-13T15:32:47.754Z,29.22
2023-05-13T15:35:15.435Z,29.06
2023-05-13T15:37:42.736Z,29.22
2023-05-13T15:40:09.421Z,29.29
2023-05-13T15:42:35.854Z,29.26
2023-05-13T15:45:02.246Z,29.44
2023-05-13T15:47:28.742Z,29.41
2023-05-13T15:49:55.216Z,29.46
2023-05-13T15:52:21.531Z,29.29
2023-05-13T15:54:47.925Z,29.22
2023-05-13T15:57:15.107Z,29.66
2023-05-13T15:59:41.635Z,29.38
2023-05-13T16:02:07.997Z,29.41
2023-05-13T16:04:34.449Z,29.54
2023-05-13T16:07:00.888Z,29.50
2023-05-13T16:09:27.306Z,29.58
2023-05-13T16:11:54.858Z,29.61
2023-05-13T16:14:21.234Z,29.52
2023-05-13T16:16:47.749Z,29.44
2023-05-13T16:19:14.236Z,29.87
2023-05-13T16:21:41.462Z,29.51
2023-05-13T16:24:08.007Z,29.72
2023-05-13T16:26:34.912Z,29.81
2023-05-13T16:29:01.518Z,29.76
2023-05-13T16:31:28.056Z,29.83
2023-05-13T16:33:54.429Z,29.88
2023-05-13T16:36:20.843Z,29.60
2023-05-13T16:38:47.228Z,29.77
2023-05-13T16:41:13.597Z,29.86
2023-05-13T16:43:39.909Z,29.87
2023-05-13T16:46:06.319Z,29.88
2023-05-13T16:48:32.664Z,29.85
2023-05-13T16:51:24.210Z,29.68
2023-05-13T16:53:50.534Z,29.78
2023-05-13T16:56:16.865Z,29.75
2023-05-13T16:58:43.199Z,29.69
2023-05-13T17:01:09.684Z,29.70
2023-05-13T17:03:36.224Z,29.81
2023-05-13T17:06:03.228Z,29.77
2023-05-13T17:08:29.622Z,30.18
2023-05-13T17:10:55.950Z,29.81
2023-05-13T17:13:22.747Z,29.94
2023-05-13T17:15:49.226Z,29.99
2023-05-13T17:18:15.853Z,30.02
2023-05-13T17:20:43.874Z,30.05
2023-05-13T17:23:10.217Z,29.85
2023-05-13T17:25:36.704Z,30.17
2023-05-13T17:28:05.047Z,30.16
2023-05-13T17:30:31.411Z,30.10
2023-05-13T17:32:57.802Z,29.99
2023-05-13T17:35:24.224Z,30.19
2023-05-13T17:37:50.615Z,29.91
2023-05-13T17:40:16.973Z,29.87
2023-05-13T17:42:43.327Z,29.89
2023-05-13T17:45:10.021Z,29.92
2023-05-13T17:47:36.585Z,29.87
2023-05-13T17:50:03.372Z,30.08
2023-05-13T17:52:29.847Z,30.06
2023-05-13T17:54:56.252Z,29.88
2023-05-13T17:57:22.642Z,30.04
2023-05-13T17:59:49.017Z,30.21
2023-05-13T18:02:15.711Z,30.14
2023-05-13T18:04:42.243Z,30.03
2023-05-13T18:07:08.768Z,30.22
2023-05-13T18:09:35.701Z,30.27
2023-05-13T18:12:03.226Z,30.03
2023-05-13T18:14:32.282Z,30.17
2023-05-13T18:16:59.125Z,30.08
2023-05-13T18:19:25.504Z,30.07
2023-05-13T18:21:51.887Z,30.14
2023-05-13T18:24:18.215Z,30.06
2023-05-13T18:26:44.570Z,29.93
2023-05-13T18:29:10.978Z,30.24
2023-05-13T18:31:37.389Z,30.39
2023-05-13T18:34:03.872Z,30.32
2023-05-13T18:36:30.842Z,30.33
2023-05-13T18:38:57.169Z,30.07
2023-05-13T18:41:23.612Z,30.06
2023-05-13T18:43:50.135Z,30.09
2023-05-13T18:46:16.537Z,30.26
2023-05-13T18:48:42.990Z,30.42
2023-05-13T18:51:10.060Z,30.16
2023-05-13T18:53:36.434Z,30.07
2023-05-13T18:56:02.944Z,30.52
2023-05-13T18:58:29.568Z,30.28
2023-05-13T19:00:55.957Z,30.05
2023-05-13T19:03:22.578Z,30.29
2023-05-13T19:05:49.297Z,30.25
2023-05-13T19:08:15.636Z,30.29
2023-05-13T19:10:42.403Z,30.16
2023-05-13T19:13:08.893Z,30.23
2023-05-13T19:15:35.516Z,30.16
2023-05-13T19:18:01.954Z,30.19
2023-05-13T19:20:29.035Z,30.49
2023-05-13T19:22:55.482Z,30.30
2023-05-13T19:25:21.925Z,30.23
2023-05-13T19:27:49.414Z,30.46
2023-05-13T19:30:15.878Z,30.50
2023-05-13T19:32:43.602Z,30.24
2023-05-13T19:35:10.749Z,30.23
2023-05-13T19:37:37.241Z,30.53
2023-05-13T19:40:03.798Z,30.23
2023-05-13T19:42:30.164Z,30.41
2023-05-13T19:44:56.587Z,30.37
2023-05-13T19:47:22.973Z,30.33
2023-05-13T19:49:49.355Z,30.42
2023-05-13T19:52:16.091Z,30.51
2023-05-13T19:54:42.459Z,30.50
2023-05-13T19:57:08.816Z,30.30
2023-05-13T19:59:36.146Z,30.57
2023-05-13T20:02:02.754Z,30.24
2023-05-13T20:04:29.265Z,30.64
2023-05-13T20:06:55.687Z,30.27
2023-05-13T20:09:22.279Z,30.66
2023-05-13T20:11:48.631Z,30.69
2023-05-13T20:14:17.109Z,30.61
2023-05-13T20:16:43.591Z,30.48
2023-05-13T20:19:10.219Z,30.39
2023-05-13T20:21:36.640Z,30.42
2023-05-13T20:24:02.980Z,30.50
2023-05-13T20:26:29.400Z,30.50
2023-05-13T20:28:57.521Z,30.50
2023-05-13T20:31:23.927Z,30.48
2023-05-13T20:33:50.824Z,30.63
2023-05-13T20:36:17.283Z,30.48
2023-05-13T20:38:43.736Z,30.64
2023-05-13T20:41:10.303Z,30.55
2023-05-13T20:43:36.773Z,30.73
2023-05-13T20:46:04.362Z,30.76
2023-05-13T20:48:35.003Z,30.62
2023-05-13T20:51:03.523Z,30.62
2023-05-13T20:53:30.144Z,30.92
2023-05-13T20:55:56.540Z,30.57
2023-05-13T20:58:23.036Z,30.73
2023-05-13T21:00:49.410Z,30.70
2023-05-13T21:03:15.900Z,30.74
2023-05-13T21:05:42.371Z,30.68
2023-05-13T21:08:08.821Z,30.57
2023-05-13T21:10:35.315Z,30.72
2023-05-13T21:13:01.839Z,30.73
2023-05-13T21:15:28.442Z,30.96
2023-05-13T21:17:54.892Z,30.95
2023-05-13T21:20:21.471Z,30.74
2023-05-13T21:22:48.085Z,30.89
2023-05-13T21:25:14.614Z,30.92
2023-05-13T21:27:41.033Z,30.74
2023-05-13T21:30:07.672Z,30.79
2023-05-13T21:32:34.160Z,30.97
2023-05-13T21:35:00.705Z,30.76
2023-05-13T21:37:27.295Z,30.80
2023-05-13T21:39:53.754Z,30.99
2023-05-13T21:42:20.092Z,30.79
2023-05-13T21:44:46.629Z,30.75
2023-05-13T21:47:12.993Z,30.81
2023-05-13T21:49:39.737Z,30.80
2023-05-13T21:52:06.336Z,30.90
2023-05-13T21:54:32.703Z,31.12
2023-05-13T21:56:59.226Z,31.16
2023-05-13T21:59:25.852Z,31.16
2023-05-13T22:01:52.284Z,30.93
2023-05-13T22:04:18.827Z,31.12
2023-05-13T22:06:45.340Z,30.91
2023-05-13T22:09:11.784Z,31.08
2023-05-13T22:11:38.350Z,31.09
2023-05-13T22:14:05.158Z,31.13
2023-05-13T22:16:31.887Z,30.89
2023-05-13T22:19:00.163Z,30.98
2023-05-13T22:21:26.844Z,31.21
2023-05-13T22:23:53.313Z,31.16
2023-05-13T22:26:19.839Z,31.31
2023-05-13T22:28:47.337Z,31.21
2023-05-13T22:31:13.862Z,31.35
2023-05-13T22:33:40.591Z,31.74
2023-05-13T22:36:07.119Z,31.96
2023-05-13T22:38:33.604Z,31.79
2023-05-13T22:41:00.749Z,31.83
2023-05-13T22:43:27.238Z,31.88
2023-05-13T22:45:53.727Z,32.08
2023-05-13T22:48:20.444Z,31.99
2023-05-13T22:50:47.025Z,32.35
2023-05-13T22:53:13.405Z,32.06
2023-05-13T22:55:39.842Z,32.48
2023-05-13T22:58:06.226Z,32.37
2023-05-13T23:00:32.549Z,32.54
2023-05-13T23:02:58.999Z,32.20
2023-05-13T23:05:25.496Z,32.45
2023-05-13T23:07:51.904Z,32.28
2023-05-13T23:10:18.475Z,32.40
2023-05-13T23:12:44.866Z,32.55
2023-05-13T23:15:14.500Z,32.46
2023-05-13T23:17:40.850Z,32.59
2023-05-13T23:20:07.684Z,32.79
2023-05-13T23:22:34.002Z,32.66
2023-05-13T23:25:00.432Z,32.49
2023-05-13T23:27:26.846Z,32.53
2023-05-13T23:29:53.256Z,32.48
2023-05-13T23:32:19.688Z,32.71
2023-05-13T23:34:46.084Z,32.46
2023-05-13T23:37:12.581Z,32.63
2023-05-13T23:39:38.950Z,32.60
2023-05-13T23:42:05.448Z,32.62
2023-05-13T23:44:31.992Z,32.69
2023-05-13T23:46:58.861Z,32.94
2023-05-13T23:49:25.334Z,32.89
2023-05-13T23:51:51.788Z,32.88
2023-05-13T23:54:18.212Z,32.71
2023-05-13T23:56:44.579Z,32.84
2023-05-13T23:59:11.116Z,32.98
